createdAt,value
2023-04-07T00:00:15.303Z,3.20
2023-04-07T00:00:46.302Z,3.40
2023-04-07T00:01:17.221Z,3.50
2023-04-07T00:01:48.267Z,3.10
2023-04-07T00:02:19.304Z,3.50
2023-04-07T00:02:50.000Z,3.10
2023-04-07T00:03:20.554Z,3.00
2023-04-07T00:03:51.326Z,3.40
2023-04-07T00:04:22.287Z,3.20
2023-04-07T00:04:52.988Z,3.50
2023-04-07T00:05:23.902Z,3.10
2023-04-07T00:05:54.821Z,3.30
2023-04-07T00:06:25.785Z,3.40
2023-04-07T00:06:56.275Z,3.30
2023-04-07T00:07:27.221Z,3.30
2023-04-07T00:07:58.148Z,3.10
2023-04-07T00:08:29.079Z,3.40
2023-04-07T00:09:00.013Z,3.40
2023-04-07T00:09:30.964Z,3.20
2023-04-07T00:10:01.887Z,3.30
2023-04-07T00:10:32.837Z,2.80
2023-04-07T00:11:03.845Z,2.90
2023-04-07T00:11:34.744Z,3.30
2023-04-07T00:12:05.727Z,3.20
2023-04-07T00:12:36.676Z,3.20
2023-04-07T00:13:07.614Z,3.90
2023-04-07T00:13:38.592Z,3.50
2023-04-07T00:14:09.554Z,3.20
2023-04-07T00:14:40.490Z,3.40
2023-04-07T00:15:11.474Z,3.00
2023-04-07T00:15:42.015Z,3.30
2023-04-07T00:16:12.980Z,3.50
2023-04-07T00:16:43.891Z,3.00
2023-04-07T00:17:14.855Z,3.40
2023-04-07T00:17:45.794Z,3.50
2023-04-07T00:18:47.659Z,3.10
2023-04-07T00:19:18.662Z,3.20
2023-04-07T00:19:49.582Z,3.00
2023-04-07T00:20:20.525Z,3.30
2023-04-07T00:20:51.486Z,3.70
2023-04-07T00:21:21.980Z,3.20
2023-04-07T00:21:52.919Z,3.00
2023-04-07T00:22:23.854Z,3.10
2023-04-07T00:22:54.781Z,3.20
2023-04-07T00:23:25.700Z,3.00
2023-04-07T00:23:56.738Z,3.00
2023-04-07T00:24:34.371Z,3.10
2023-04-07T00:24:58.050Z,3.10
2023-04-07T00:25:28.982Z,2.80
2023-04-07T00:25:59.962Z,2.80
2023-04-07T00:26:30.953Z,2.70
2023-04-07T00:27:01.908Z,2.80
2023-04-07T00:27:32.823Z,3.10
2023-04-07T00:28:03.746Z,2.90
2023-04-07T00:28:34.712Z,3.10
2023-04-07T00:29:05.664Z,3.30
2023-04-07T00:29:36.565Z,3.50
2023-04-07T00:30:07.571Z,3.00
2023-04-07T00:30:38.528Z,3.40
2023-04-07T00:31:09.468Z,2.90
2023-04-07T00:31:40.506Z,3.10
2023-04-07T00:32:11.048Z,2.80
2023-04-07T00:32:42.089Z,2.70
2023-04-07T00:33:12.564Z,2.60
2023-04-07T00:33:43.496Z,2.90
2023-04-07T00:34:14.390Z,2.90
2023-04-07T00:34:45.288Z,3.10
2023-04-07T00:35:16.205Z,2.60
2023-04-07T00:36:18.092Z,2.90
2023-04-07T00:36:49.032Z,2.50
2023-04-07T00:37:19.953Z,3.10
2023-04-07T00:37:50.872Z,2.70
2023-04-07T00:38:21.888Z,2.70
2023-04-07T00:38:52.844Z,2.60
2023-04-07T00:39:23.841Z,3.20
2023-04-07T00:39:54.303Z,2.30
2023-04-07T00:40:25.233Z,2.50
2023-04-07T00:40:56.182Z,2.70
2023-04-07T00:41:27.125Z,2.70
2023-04-07T00:41:58.112Z,2.60
2023-04-07T00:42:29.088Z,2.80
2023-04-07T00:43:00.034Z,2.60
2023-04-07T00:43:31.018Z,2.80
2023-04-07T00:44:01.920Z,2.30
2023-04-07T00:44:32.856Z,2.50
2023-04-07T00:45:03.826Z,2.50
2023-04-07T00:45:34.719Z,2.40
2023-04-07T00:46:05.681Z,2.30
2023-04-07T00:46:36.596Z,2.10
2023-04-07T00:47:37.083Z,1.90
2023-04-07T00:48:40.026Z,2.30
2023-04-07T00:49:11.380Z,3.40
2023-04-07T00:49:40.929Z,2.40
2023-04-07T00:50:11.908Z,2.10
2023-04-07T00:50:42.857Z,2.50
2023-04-07T00:51:13.790Z,2.20
2023-04-07T00:51:44.768Z,1.80
2023-04-07T00:52:15.781Z,2.10
2023-04-07T00:52:46.712Z,2.10
2023-04-07T00:53:17.631Z,2.00
2023-04-07T00:53:48.245Z,2.10
2023-04-07T00:54:19.247Z,1.90
2023-04-07T00:54:50.208Z,1.50
2023-04-07T00:55:21.157Z,2.00
2023-04-07T00:55:52.067Z,1.70
2023-04-07T00:56:22.993Z,1.60
2023-04-07T00:56:53.969Z,1.70
2023-04-07T00:57:24.913Z,1.60
2023-04-07T00:57:55.850Z,1.90
2023-04-07T00:58:26.770Z,1.80
2023-04-07T00:58:57.745Z,1.90
2023-04-07T00:59:28.668Z,1.50
2023-04-07T00:59:59.591Z,1.60
2023-04-07T01:00:30.593Z,1.70
2023-04-07T01:01:01.087Z,1.80
2023-04-07T01:01:32.104Z,1.50
2023-04-07T01:02:03.116Z,1.70
2023-04-07T01:02:33.763Z,1.60
2023-04-07T01:03:04.607Z,1.80
2023-04-07T01:03:35.510Z,1.60
2023-04-07T01:04:06.278Z,1.70
2023-04-07T01:04:36.867Z,1.80
2023-04-07T01:05:07.550Z,1.80
2023-04-07T01:05:38.086Z,1.60
2023-04-07T01:06:09.031Z,1.70
2023-04-07T01:06:39.954Z,1.90
2023-04-07T01:07:10.897Z,1.60
2023-04-07T01:07:41.801Z,1.70
2023-04-07T01:08:12.814Z,1.30
2023-04-07T01:08:43.775Z,1.60
2023-04-07T01:09:14.733Z,1.60
2023-04-07T01:09:45.670Z,1.50
2023-04-07T01:10:16.649Z,1.60
2023-04-07T01:10:47.115Z,1.30
2023-04-07T01:11:18.076Z,1.50
2023-04-07T01:11:49.071Z,1.70
2023-04-07T01:12:19.976Z,1.50
2023-04-07T01:12:50.900Z,1.80
2023-04-07T01:13:21.814Z,1.50
2023-04-07T01:14:23.706Z,1.80
2023-04-07T01:14:54.620Z,1.30
2023-04-07T01:15:25.546Z,1.50
2023-04-07T01:15:56.560Z,1.40
2023-04-07T01:16:27.065Z,1.50
2023-04-07T01:16:58.026Z,1.80
2023-04-07T01:17:29.009Z,1.80
2023-04-07T01:17:59.984Z,1.50
2023-04-07T01:18:30.936Z,1.50
2023-04-07T01:19:01.915Z,1.60
2023-04-07T01:19:32.820Z,1.60
2023-04-07T01:20:03.749Z,1.70
2023-04-07T01:20:34.714Z,1.40
2023-04-07T01:21:05.741Z,1.60
2023-04-07T01:21:36.715Z,1.60
2023-04-07T01:22:07.694Z,1.50
2023-04-07T01:22:38.631Z,1.90
2023-04-07T01:23:09.540Z,1.70
2023-04-07T01:23:40.453Z,1.80
2023-04-07T01:24:11.363Z,1.70
2023-04-07T01:24:42.309Z,1.80
2023-04-07T01:25:13.262Z,1.70
2023-04-07T01:25:44.175Z,1.70
2023-04-07T01:26:15.080Z,1.80
2023-04-07T01:26:45.999Z,1.60
2023-04-07T01:27:16.937Z,1.90
2023-04-07T01:27:47.460Z,1.90
2023-04-07T01:28:18.388Z,2.00
2023-04-07T01:28:48.880Z,1.80
2023-04-07T01:29:19.827Z,1.90
2023-04-07T01:29:50.764Z,1.70
2023-04-07T01:30:21.695Z,2.30
2023-04-07T01:30:52.595Z,1.80
2023-04-07T01:31:54.459Z,1.90
2023-04-07T01:32:25.379Z,1.70
2023-04-07T01:32:56.502Z,1.80
2023-04-07T01:33:26.982Z,1.60
2023-04-07T01:33:57.911Z,1.70
2023-04-07T01:34:28.928Z,1.90
2023-04-07T01:34:59.840Z,2.10
2023-04-07T01:35:30.834Z,1.90
2023-04-07T01:36:01.765Z,2.00
2023-04-07T01:36:32.676Z,2.10
2023-04-07T01:37:03.688Z,1.90
2023-04-07T01:37:34.614Z,1.70
2023-04-07T01:38:05.583Z,1.90
2023-04-07T01:38:36.523Z,1.80
2023-04-07T01:39:07.450Z,2.10
2023-04-07T01:39:38.455Z,2.00
2023-04-07T01:40:09.398Z,1.70
2023-04-07T01:40:40.313Z,2.10
2023-04-07T01:41:11.196Z,1.80
2023-04-07T01:41:42.141Z,2.00
2023-04-07T01:42:13.076Z,1.90
2023-04-07T01:42:43.616Z,1.70
2023-04-07T01:43:14.530Z,1.90
2023-04-07T01:43:46.386Z,1.60
2023-04-07T01:44:16.384Z,1.80
2023-04-07T01:44:47.314Z,1.90
2023-04-07T01:45:18.249Z,1.70
2023-04-07T01:45:49.192Z,1.70
2023-04-07T01:46:20.135Z,2.00
2023-04-07T01:46:51.148Z,2.10
2023-04-07T01:47:21.884Z,2.00
2023-04-07T01:47:52.450Z,1.80
2023-04-07T01:48:23.025Z,2.00
2023-04-07T01:48:53.530Z,2.00
2023-04-07T01:49:24.461Z,2.00
2023-04-07T01:49:55.419Z,1.90
2023-04-07T01:50:25.870Z,1.80
2023-04-07T01:50:56.844Z,2.10
2023-04-07T01:51:27.768Z,1.80
2023-04-07T01:51:58.734Z,2.00
2023-04-07T01:52:29.647Z,1.80
2023-04-07T01:53:00.580Z,2.30
2023-04-07T01:53:31.475Z,2.00
2023-04-07T01:54:02.396Z,1.80
2023-04-07T01:54:33.328Z,1.80
2023-04-07T01:55:04.223Z,1.90
2023-04-07T01:55:35.192Z,2.00
2023-04-07T01:56:06.120Z,2.20
2023-04-07T01:56:37.033Z,1.90
2023-04-07T01:57:07.937Z,2.10
2023-04-07T01:57:38.917Z,1.90
2023-04-07T01:58:09.855Z,2.00
2023-04-07T01:58:40.771Z,2.10
2023-04-07T01:59:11.319Z,1.90
2023-04-07T01:59:42.208Z,2.00
2023-04-07T02:00:13.160Z,2.20
2023-04-07T02:00:44.214Z,2.10
2023-04-07T02:01:14.721Z,1.90
2023-04-07T02:02:16.385Z,2.10
2023-04-07T02:02:46.965Z,2.40
2023-04-07T02:03:17.655Z,2.10
2023-04-07T02:03:48.292Z,2.00
2023-04-07T02:04:18.830Z,2.20
2023-04-07T02:04:49.727Z,2.20
2023-04-07T02:05:20.770Z,2.20
2023-04-07T02:05:51.181Z,1.90
2023-04-07T02:06:22.172Z,2.10
2023-04-07T02:06:53.121Z,2.10
2023-04-07T02:07:24.060Z,2.10
2023-04-07T02:07:54.988Z,2.50
2023-04-07T02:08:25.909Z,2.00
2023-04-07T02:08:56.825Z,1.80
2023-04-07T02:09:27.764Z,2.20
2023-04-07T02:10:29.632Z,2.20
2023-04-07T02:11:00.613Z,2.10
2023-04-07T02:11:31.546Z,2.10
2023-04-07T02:12:02.488Z,2.10
2023-04-07T02:12:33.418Z,2.50
2023-04-07T02:13:04.384Z,2.10
2023-04-07T02:13:35.309Z,2.00
2023-04-07T02:14:06.219Z,2.10
2023-04-07T02:14:37.217Z,2.20
2023-04-07T02:15:08.229Z,2.40
2023-04-07T02:15:38.707Z,2.10
2023-04-07T02:16:09.657Z,2.10
2023-04-07T02:16:40.607Z,2.10
2023-04-07T02:17:11.527Z,2.20
2023-04-07T02:17:42.557Z,2.20
2023-04-07T02:18:13.449Z,2.10
2023-04-07T02:18:44.385Z,2.00
2023-04-07T02:19:15.329Z,2.10
2023-04-07T02:19:46.299Z,2.00
2023-04-07T02:20:17.207Z,2.20
2023-04-07T02:20:48.129Z,2.20
2023-04-07T02:21:19.036Z,2.40
2023-04-07T02:21:49.972Z,1.90
2023-04-07T02:22:20.934Z,2.10
2023-04-07T02:22:51.879Z,2.30
2023-04-07T02:23:22.788Z,2.40
2023-04-07T02:23:53.890Z,2.00
2023-04-07T02:24:24.353Z,1.90
2023-04-07T02:24:55.336Z,2.00
2023-04-07T02:25:26.292Z,2.50
2023-04-07T02:25:57.289Z,2.20
2023-04-07T02:26:28.227Z,1.90
2023-04-07T02:26:59.202Z,2.00
2023-04-07T02:28:01.029Z,2.00
2023-04-07T02:28:31.945Z,2.60
2023-04-07T02:29:02.864Z,2.40
2023-04-07T02:29:33.774Z,2.50
2023-04-07T02:30:04.705Z,2.40
2023-04-07T02:30:35.635Z,2.30
2023-04-07T02:31:06.578Z,2.20
2023-04-07T02:31:37.524Z,2.10
2023-04-07T02:32:08.608Z,2.10
2023-04-07T02:32:39.081Z,2.10
2023-04-07T02:33:10.034Z,2.40
2023-04-07T02:33:40.964Z,2.30
2023-04-07T02:34:11.846Z,2.00
2023-04-07T02:34:42.782Z,2.30
2023-04-07T02:35:13.750Z,2.00
2023-04-07T02:35:44.645Z,1.90
2023-04-07T02:36:15.591Z,1.80
2023-04-07T02:36:46.617Z,1.70
2023-04-07T02:37:17.547Z,2.00
2023-04-07T02:37:48.467Z,2.10
2023-04-07T02:38:19.398Z,2.20
2023-04-07T02:38:50.384Z,2.40
2023-04-07T02:39:21.322Z,2.20
2023-04-07T02:39:52.241Z,2.20
2023-04-07T02:40:23.153Z,2.20
2023-04-07T02:40:54.148Z,2.00
2023-04-07T02:41:25.096Z,2.50
2023-04-07T02:41:56.017Z,2.00
2023-04-07T02:42:27.010Z,2.30
2023-04-07T02:42:57.937Z,2.30
2023-04-07T02:43:28.876Z,2.20
2023-04-07T02:43:59.803Z,2.20
2023-04-07T02:44:30.719Z,2.10
2023-04-07T02:45:32.625Z,2.30
2023-04-07T02:46:03.614Z,2.20
2023-04-07T02:46:34.118Z,2.50
2023-04-07T02:47:04.583Z,2.10
2023-04-07T02:47:35.624Z,2.10
2023-04-07T02:48:06.541Z,2.40
2023-04-07T02:48:37.442Z,2.00
2023-04-07T02:49:08.374Z,2.20
2023-04-07T02:49:39.283Z,2.40
2023-04-07T02:50:10.204Z,2.10
2023-04-07T02:50:41.158Z,2.20
2023-04-07T02:51:12.068Z,2.40
2023-04-07T02:51:42.998Z,2.40
2023-04-07T02:52:13.901Z,2.10
2023-04-07T02:52:44.855Z,2.20
2023-04-07T02:53:15.794Z,1.90
2023-04-07T02:53:46.773Z,2.30
2023-04-07T02:54:17.685Z,1.90
2023-04-07T02:54:48.598Z,1.90
2023-04-07T02:55:19.532Z,2.00
2023-04-07T02:55:50.449Z,2.00
2023-04-07T02:56:21.477Z,2.30
2023-04-07T02:56:51.890Z,1.90
2023-04-07T02:57:22.855Z,2.50
2023-04-07T02:57:53.758Z,2.30
2023-04-07T02:58:24.671Z,2.00
2023-04-07T02:58:55.586Z,2.20
2023-04-07T02:59:26.490Z,2.10
2023-04-07T02:59:57.414Z,2.20
2023-04-07T03:00:28.350Z,2.00
2023-04-07T03:00:59.373Z,2.40
2023-04-07T03:01:30.368Z,2.20
2023-04-07T03:02:00.958Z,2.20
2023-04-07T03:02:31.460Z,2.10
2023-04-07T03:03:02.058Z,1.90
2023-04-07T03:03:32.724Z,2.00
2023-04-07T03:04:03.257Z,1.90
2023-04-07T03:04:33.743Z,2.00
2023-04-07T03:05:04.656Z,2.10
2023-04-07T03:05:35.581Z,1.90
2023-04-07T03:06:06.492Z,2.30
2023-04-07T03:06:37.410Z,2.10
2023-04-07T03:07:08.357Z,2.20
2023-04-07T03:07:39.244Z,2.30
2023-04-07T03:08:12.289Z,2.20
2023-04-07T03:08:40.765Z,2.00
2023-04-07T03:09:11.689Z,2.20
2023-04-07T03:09:42.598Z,2.20
2023-04-07T03:10:13.525Z,2.20
2023-04-07T03:11:15.355Z,2.30
2023-04-07T03:11:46.268Z,1.80
2023-04-07T03:12:17.181Z,2.20
2023-04-07T03:12:48.111Z,2.10
2023-04-07T03:13:19.038Z,2.30
2023-04-07T03:13:49.564Z,2.30
2023-04-07T03:14:20.479Z,2.10
2023-04-07T03:14:51.416Z,2.50
2023-04-07T03:15:22.355Z,2.30
2023-04-07T03:15:53.257Z,2.40
2023-04-07T03:16:24.287Z,2.00
2023-04-07T03:16:55.265Z,2.20
2023-04-07T03:17:25.778Z,2.00
2023-04-07T03:17:56.770Z,2.40
2023-04-07T03:18:27.678Z,2.00
2023-04-07T03:18:58.595Z,2.00
2023-04-07T03:19:29.481Z,2.30
2023-04-07T03:20:00.389Z,2.20
2023-04-07T03:20:31.386Z,2.10
2023-04-07T03:21:02.335Z,2.30
2023-04-07T03:21:33.239Z,2.40
2023-04-07T03:22:04.157Z,2.10
2023-04-07T03:22:35.134Z,2.30
2023-04-07T03:23:05.601Z,2.20
2023-04-07T03:23:36.509Z,2.30
2023-04-07T03:24:07.417Z,2.00
2023-04-07T03:24:38.341Z,2.40
2023-04-07T03:25:09.260Z,2.50
2023-04-07T03:25:40.180Z,2.10
2023-04-07T03:26:11.129Z,2.20
2023-04-07T03:26:41.627Z,1.90
2023-04-07T03:27:12.540Z,2.70
2023-04-07T03:27:43.455Z,2.80
2023-04-07T03:28:45.318Z,2.60
2023-04-07T03:29:16.222Z,2.30
2023-04-07T03:29:47.162Z,2.50
2023-04-07T03:30:18.137Z,2.30
2023-04-07T03:30:49.069Z,2.30
2023-04-07T03:31:20.088Z,2.50
2023-04-07T03:31:50.583Z,2.30
2023-04-07T03:32:21.502Z,2.50
2023-04-07T03:32:52.453Z,2.10
2023-04-07T03:33:23.404Z,2.40
2023-04-07T03:33:54.441Z,2.60
2023-04-07T03:34:24.948Z,2.50
2023-04-07T03:34:55.909Z,2.50
2023-04-07T03:35:26.846Z,2.30
2023-04-07T03:35:57.780Z,2.80
2023-04-07T03:36:28.696Z,2.90
2023-04-07T03:36:59.729Z,2.30
2023-04-07T03:37:30.617Z,2.40
2023-04-07T03:38:01.568Z,2.60
2023-04-07T03:38:32.042Z,2.50
2023-04-07T03:39:03.061Z,2.10
2023-04-07T03:39:33.984Z,1.90
2023-04-07T03:40:04.910Z,2.30
2023-04-07T03:40:35.842Z,2.20
2023-04-07T03:41:06.764Z,2.30
2023-04-07T03:41:37.679Z,2.20
2023-04-07T03:42:08.603Z,2.10
2023-04-07T03:42:39.520Z,2.60
2023-04-07T03:43:10.479Z,2.60
2023-04-07T03:43:41.402Z,2.10
2023-04-07T03:44:12.310Z,2.20
2023-04-07T03:44:43.237Z,2.30
2023-04-07T03:45:14.160Z,2.30
2023-04-07T03:46:16.119Z,2.50
2023-04-07T03:46:46.552Z,2.50
2023-04-07T03:47:17.480Z,2.50
2023-04-07T03:47:48.444Z,2.50
2023-04-07T03:48:19.347Z,2.60
2023-04-07T03:48:50.307Z,2.30
2023-04-07T03:49:20.762Z,2.60
2023-04-07T03:49:51.676Z,2.40
2023-04-07T03:50:22.630Z,2.70
2023-04-07T03:50:53.608Z,2.70
2023-04-07T03:51:24.578Z,2.50
2023-04-07T03:51:55.031Z,2.30
2023-04-07T03:52:25.952Z,2.70
2023-04-07T03:52:56.879Z,2.40
2023-04-07T03:53:27.792Z,2.30
2023-04-07T03:53:58.752Z,2.50
2023-04-07T03:54:29.255Z,2.50
2023-04-07T03:55:00.209Z,2.40
2023-04-07T03:55:31.179Z,2.50
2023-04-07T03:56:02.198Z,2.10
2023-04-07T03:56:33.107Z,2.40
2023-04-07T03:57:04.025Z,2.40
2023-04-07T03:57:34.936Z,2.90
2023-04-07T03:58:05.858Z,3.00
2023-04-07T03:59:07.732Z,2.70
2023-04-07T03:59:38.645Z,2.60
2023-04-07T04:00:09.571Z,2.80
2023-04-07T04:00:40.532Z,2.60
2023-04-07T04:01:11.457Z,3.10
2023-04-07T04:01:42.390Z,2.70
2023-04-07T04:02:13.399Z,2.50
2023-04-07T04:02:43.979Z,2.60
2023-04-07T04:03:14.620Z,2.20
2023-04-07T04:03:45.226Z,2.60
2023-04-07T04:04:15.897Z,2.40
2023-04-07T04:04:46.545Z,2.40
2023-04-07T04:05:17.489Z,2.70
2023-04-07T04:05:48.428Z,2.50
2023-04-07T04:06:19.346Z,2.70
2023-04-07T04:06:50.355Z,2.50
2023-04-07T04:07:21.276Z,2.50
2023-04-07T04:07:52.168Z,2.50
2023-04-07T04:08:23.083Z,2.60
2023-04-07T04:08:54.013Z,2.30
2023-04-07T04:09:24.957Z,2.70
2023-04-07T04:09:55.882Z,2.20
2023-04-07T04:10:26.798Z,2.40
2023-04-07T04:10:57.715Z,2.20
2023-04-07T04:11:59.539Z,2.50
2023-04-07T04:12:30.465Z,2.70
2023-04-07T04:13:01.370Z,2.40
2023-04-07T04:13:32.291Z,2.80
2023-04-07T04:14:03.241Z,2.40
2023-04-07T04:14:34.166Z,2.70
2023-04-07T04:15:05.069Z,2.40
2023-04-07T04:15:36.122Z,2.30
2023-04-07T04:16:07.127Z,2.70
2023-04-07T04:16:37.568Z,2.00
2023-04-07T04:17:08.476Z,2.40
2023-04-07T04:17:39.374Z,2.80
2023-04-07T04:18:10.330Z,2.60
2023-04-07T04:18:41.247Z,2.80
2023-04-07T04:19:12.172Z,2.60
2023-04-07T04:19:43.090Z,2.90
2023-04-07T04:20:14.070Z,2.50
2023-04-07T04:20:44.987Z,2.80
2023-04-07T04:21:15.897Z,2.90
2023-04-07T04:21:46.847Z,2.20
2023-04-07T04:22:17.789Z,2.40
2023-04-07T04:22:48.722Z,2.90
2023-04-07T04:23:19.632Z,2.70
2023-04-07T04:23:50.788Z,2.50
2023-04-07T04:24:21.251Z,2.70
2023-04-07T04:24:52.225Z,2.60
2023-04-07T04:25:23.154Z,2.50
2023-04-07T04:25:54.075Z,2.50
2023-04-07T04:26:24.952Z,2.90
2023-04-07T04:26:55.936Z,2.90
2023-04-07T04:27:26.856Z,2.60
2023-04-07T04:27:57.717Z,2.10
2023-04-07T04:28:28.597Z,3.00
2023-04-07T04:29:32.367Z,2.50
2023-04-07T04:30:01.312Z,2.50
2023-04-07T04:30:32.187Z,2.30
2023-04-07T04:31:03.110Z,2.70
2023-04-07T04:31:34.021Z,2.00
2023-04-07T04:32:04.928Z,2.30
2023-04-07T04:32:35.834Z,2.20
2023-04-07T04:33:06.766Z,2.20
2023-04-07T04:33:37.628Z,2.50
2023-04-07T04:34:08.513Z,2.70
2023-04-07T04:34:39.400Z,2.30
2023-04-07T04:35:10.321Z,2.60
2023-04-07T04:35:41.172Z,2.90
2023-04-07T04:36:12.093Z,2.60
2023-04-07T04:36:42.996Z,2.30
2023-04-07T04:37:13.902Z,2.30
2023-04-07T04:37:44.785Z,2.30
2023-04-07T04:38:15.631Z,2.50
2023-04-07T04:38:46.519Z,2.30
2023-04-07T04:39:17.474Z,2.50
2023-04-07T04:39:48.402Z,2.50
2023-04-07T04:40:19.234Z,2.80
2023-04-07T04:40:50.094Z,2.50
2023-04-07T04:41:20.965Z,2.30
2023-04-07T04:41:51.830Z,2.40
2023-04-07T04:42:22.680Z,2.40
2023-04-07T04:42:53.587Z,2.40
2023-04-07T04:43:24.468Z,2.50
2023-04-07T04:43:55.316Z,2.60
2023-04-07T04:44:26.204Z,2.70
2023-04-07T04:44:57.115Z,2.80
2023-04-07T04:45:28.052Z,2.80
2023-04-07T04:45:58.887Z,2.20
2023-04-07T04:47:00.633Z,3.10
2023-04-07T04:47:31.603Z,2.30
2023-04-07T04:48:02.524Z,2.60
2023-04-07T04:48:33.390Z,2.90
2023-04-07T04:49:04.259Z,2.50
2023-04-07T04:49:35.133Z,2.50
2023-04-07T04:50:05.970Z,2.50
2023-04-07T04:50:36.820Z,2.60
2023-04-07T04:51:07.759Z,2.50
2023-04-07T04:51:38.601Z,2.50
2023-04-07T04:52:09.463Z,2.00
2023-04-07T04:52:40.324Z,2.80
2023-04-07T04:53:11.281Z,2.50
2023-04-07T04:53:42.150Z,2.30
2023-04-07T04:54:13.015Z,2.60
2023-04-07T04:54:43.861Z,2.50
2023-04-07T04:55:14.834Z,2.50
2023-04-07T04:55:45.673Z,2.50
2023-04-07T04:56:16.519Z,2.60
2023-04-07T04:56:47.398Z,2.60
2023-04-07T04:57:18.243Z,2.60
2023-04-07T04:57:49.109Z,2.60
2023-04-07T04:58:20.010Z,2.40
2023-04-07T04:58:50.878Z,2.70
2023-04-07T04:59:21.742Z,2.50
2023-04-07T04:59:52.632Z,2.60
2023-04-07T05:00:23.497Z,3.20
2023-04-07T05:00:54.366Z,2.70
2023-04-07T05:01:25.249Z,2.30
2023-04-07T05:01:56.261Z,2.60
2023-04-07T05:02:26.780Z,2.40
2023-04-07T05:02:57.371Z,2.40
2023-04-07T05:03:28.137Z,2.40
2023-04-07T05:03:59.190Z,2.30
2023-04-07T05:04:29.759Z,2.90
2023-04-07T05:05:00.345Z,2.50
2023-04-07T05:05:31.064Z,2.70
2023-04-07T05:06:01.450Z,3.10
2023-04-07T05:06:32.300Z,2.90
2023-04-07T05:07:03.187Z,2.70
2023-04-07T05:07:34.037Z,2.40
2023-04-07T05:08:04.926Z,2.90
2023-04-07T05:08:35.793Z,2.80
2023-04-07T05:09:06.668Z,2.90
2023-04-07T05:09:37.508Z,2.70
2023-04-07T05:10:08.446Z,2.90
2023-04-07T05:10:39.352Z,2.70
2023-04-07T05:11:10.212Z,2.50
2023-04-07T05:11:41.074Z,2.80
2023-04-07T05:12:11.933Z,2.60
2023-04-07T05:12:42.810Z,2.90
2023-04-07T05:13:13.656Z,3.10
2023-04-07T05:13:44.518Z,2.60
2023-04-07T05:14:15.384Z,2.40
2023-04-07T05:14:46.273Z,2.10
2023-04-07T05:15:17.153Z,2.70
2023-04-07T05:15:48.075Z,2.50
2023-04-07T05:16:18.567Z,2.50
2023-04-07T05:16:49.430Z,2.50
2023-04-07T05:17:20.327Z,2.60
2023-04-07T05:17:51.216Z,2.60
2023-04-07T05:18:22.104Z,2.80
2023-04-07T05:18:52.959Z,2.80
2023-04-07T05:19:23.822Z,2.10
2023-04-07T05:19:54.705Z,2.70
2023-04-07T05:20:25.536Z,2.30
2023-04-07T05:20:56.491Z,2.50
2023-04-07T05:21:27.422Z,2.60
2023-04-07T05:21:58.277Z,2.20
2023-04-07T05:22:29.118Z,2.30
2023-04-07T05:22:59.982Z,3.00
2023-04-07T05:23:30.852Z,2.50
2023-04-07T05:24:01.717Z,2.70
2023-04-07T05:24:32.558Z,2.40
2023-04-07T05:25:34.302Z,2.60
2023-04-07T05:26:05.184Z,2.60
2023-04-07T05:26:36.077Z,2.30
2023-04-07T05:27:06.920Z,2.50
2023-04-07T05:27:37.800Z,2.60
2023-04-07T05:28:08.677Z,2.40
2023-04-07T05:28:39.534Z,2.30
2023-04-07T05:29:10.406Z,2.30
2023-04-07T05:29:41.262Z,2.70
2023-04-07T05:30:12.132Z,2.50
2023-04-07T05:30:43.023Z,2.60
2023-04-07T05:31:13.944Z,2.40
2023-04-07T05:31:44.877Z,2.50
2023-04-07T05:32:15.771Z,2.20
2023-04-07T05:32:46.650Z,2.50
2023-04-07T05:33:17.518Z,2.50
2023-04-07T05:33:48.675Z,2.40
2023-04-07T05:34:19.282Z,2.50
2023-04-07T05:34:50.138Z,2.80
2023-04-07T05:35:21.077Z,2.20
2023-04-07T05:35:51.985Z,2.80
2023-04-07T05:36:22.900Z,2.20
2023-04-07T05:36:53.763Z,2.80
2023-04-07T05:37:24.648Z,3.00
2023-04-07T05:37:55.527Z,2.40
2023-04-07T05:38:26.386Z,2.70
2023-04-07T05:38:57.263Z,2.30
2023-04-07T05:39:28.111Z,2.70
2023-04-07T05:39:58.972Z,2.70
2023-04-07T05:40:29.829Z,2.60
2023-04-07T05:41:00.775Z,2.70
2023-04-07T05:41:31.271Z,2.30
2023-04-07T05:42:02.186Z,2.60
2023-04-07T05:43:03.950Z,2.80
2023-04-07T05:43:34.817Z,2.50
2023-04-07T05:44:05.661Z,2.90
2023-04-07T05:44:36.571Z,2.40
2023-04-07T05:45:07.407Z,2.60
2023-04-07T05:45:38.334Z,2.40
2023-04-07T05:46:09.229Z,2.70
2023-04-07T05:46:40.137Z,2.70
2023-04-07T05:47:10.996Z,2.70
2023-04-07T05:47:41.952Z,2.40
2023-04-07T05:48:12.805Z,2.30
2023-04-07T05:48:43.656Z,2.70
2023-04-07T05:49:20.257Z,2.30
2023-04-07T05:49:45.324Z,2.70
2023-04-07T05:50:16.188Z,2.30
2023-04-07T05:50:47.045Z,2.10
2023-04-07T05:51:17.889Z,2.70
2023-04-07T05:51:49.394Z,2.80
2023-04-07T05:52:19.287Z,2.50
2023-04-07T05:52:50.164Z,2.60
2023-04-07T05:53:21.088Z,2.80
2023-04-07T05:53:52.178Z,2.50
2023-04-07T05:54:22.734Z,2.60
2023-04-07T05:54:53.624Z,3.00
2023-04-07T05:55:24.505Z,3.00
2023-04-07T05:55:55.351Z,3.10
2023-04-07T05:56:26.225Z,3.10
2023-04-07T05:56:57.148Z,2.80
2023-04-07T05:57:28.000Z,2.30
2023-04-07T05:57:58.854Z,2.70
2023-04-07T05:58:29.734Z,2.50
2023-04-07T05:59:00.624Z,2.90
2023-04-07T05:59:31.471Z,2.70
2023-04-07T06:00:33.211Z,3.20
2023-04-07T06:01:04.123Z,2.60
2023-04-07T06:01:35.020Z,2.80
2023-04-07T06:02:06.007Z,2.90
2023-04-07T06:02:36.530Z,2.70
2023-04-07T06:03:06.983Z,2.80
2023-04-07T06:03:38.130Z,3.00
2023-04-07T06:04:08.533Z,2.90
2023-04-07T06:04:39.509Z,2.60
2023-04-07T06:05:10.556Z,2.30
2023-04-07T06:05:41.001Z,2.40
2023-04-07T06:06:11.887Z,3.00
2023-04-07T06:06:42.736Z,2.70
2023-04-07T06:07:13.579Z,2.60
2023-04-07T06:07:44.447Z,2.50
2023-04-07T06:08:15.300Z,2.70
2023-04-07T06:08:46.149Z,2.50
2023-04-07T06:09:16.990Z,2.80
2023-04-07T06:09:47.849Z,2.60
2023-04-07T06:10:18.710Z,2.70
2023-04-07T06:10:50.092Z,2.50
2023-04-07T06:11:20.460Z,2.60
2023-04-07T06:11:51.386Z,2.80
2023-04-07T06:12:22.263Z,2.40
2023-04-07T06:12:53.126Z,2.60
2023-04-07T06:13:24.089Z,2.60
2023-04-07T06:13:54.939Z,2.60
2023-04-07T06:14:25.788Z,3.20
2023-04-07T06:14:56.639Z,2.70
2023-04-07T06:15:27.507Z,3.00
2023-04-07T06:15:58.451Z,3.10
2023-04-07T06:16:29.339Z,3.10
2023-04-07T06:17:00.267Z,3.10
2023-04-07T06:17:31.242Z,2.80
2023-04-07T06:18:01.654Z,3.30
2023-04-07T06:18:32.512Z,3.20
2023-04-07T06:19:03.375Z,3.50
2023-04-07T06:19:34.241Z,2.70
2023-04-07T06:20:05.127Z,2.80
2023-04-07T06:20:35.952Z,3.00
2023-04-07T06:21:06.811Z,2.90
2023-04-07T06:21:37.694Z,2.50
2023-04-07T06:22:08.569Z,2.70
2023-04-07T06:22:39.444Z,3.00
2023-04-07T06:23:10.302Z,2.60
2023-04-07T06:23:41.157Z,3.20
2023-04-07T06:24:12.021Z,2.70
2023-04-07T06:24:42.903Z,2.40
2023-04-07T06:25:13.760Z,2.50
2023-04-07T06:26:15.513Z,3.00
2023-04-07T06:26:46.370Z,3.10
2023-04-07T06:27:17.253Z,2.40
2023-04-07T06:27:48.169Z,2.90
2023-04-07T06:28:19.023Z,2.80
2023-04-07T06:28:49.992Z,2.60
2023-04-07T06:29:20.848Z,2.60
2023-04-07T06:29:51.700Z,3.20
2023-04-07T06:30:22.542Z,2.60
2023-04-07T06:30:53.080Z,3.10
2023-04-07T06:31:23.998Z,3.00
2023-04-07T06:31:54.916Z,3.30
2023-04-07T06:32:25.832Z,2.80
2023-04-07T06:32:56.812Z,2.70
2023-04-07T06:33:27.694Z,2.90
2023-04-07T06:33:58.564Z,2.80
2023-04-07T06:34:29.449Z,2.80
2023-04-07T06:35:00.294Z,3.00
2023-04-07T06:35:31.221Z,3.10
2023-04-07T06:36:02.091Z,2.60
2023-04-07T06:36:33.004Z,2.70
2023-04-07T06:37:03.900Z,2.80
2023-04-07T06:37:34.804Z,2.70
2023-04-07T06:38:05.679Z,2.70
2023-04-07T06:38:36.542Z,2.80
2023-04-07T06:39:07.397Z,3.10
2023-04-07T06:39:38.266Z,2.70
2023-04-07T06:40:09.158Z,2.90
2023-04-07T06:40:40.013Z,3.10
2023-04-07T06:41:10.890Z,2.80
2023-04-07T06:41:41.754Z,2.90
2023-04-07T06:42:12.611Z,3.00
2023-04-07T06:42:43.499Z,2.90
2023-04-07T06:43:14.379Z,2.90
2023-04-07T06:43:45.233Z,2.90
2023-04-07T06:44:16.092Z,2.80
2023-04-07T06:44:46.982Z,3.00
2023-04-07T06:45:17.870Z,2.70
2023-04-07T06:45:48.889Z,3.50
2023-04-07T06:46:19.786Z,2.80
2023-04-07T06:46:50.651Z,2.90
2023-04-07T06:47:21.521Z,2.70
2023-04-07T06:47:52.408Z,2.70
2023-04-07T06:48:23.290Z,3.10
2023-04-07T06:48:54.177Z,2.90
2023-04-07T06:49:25.017Z,2.70
2023-04-07T06:49:55.872Z,2.70
2023-04-07T06:50:26.714Z,2.80
2023-04-07T06:50:57.595Z,2.80
2023-04-07T06:51:28.439Z,2.80
2023-04-07T06:51:59.308Z,2.80
2023-04-07T06:52:30.194Z,3.30
2023-04-07T06:53:01.075Z,2.90
2023-04-07T06:53:31.984Z,3.00
2023-04-07T06:54:02.843Z,3.30
2023-04-07T06:54:33.727Z,3.10
2023-04-07T06:55:04.586Z,3.20
2023-04-07T06:55:35.570Z,2.90
2023-04-07T06:56:06.006Z,3.30
2023-04-07T06:56:36.900Z,2.80
2023-04-07T06:57:07.736Z,3.30
2023-04-07T06:57:38.622Z,2.70
2023-04-07T06:58:09.488Z,3.40
2023-04-07T06:58:40.362Z,3.00
2023-04-07T06:59:11.197Z,2.70
2023-04-07T06:59:42.071Z,2.80
2023-04-07T07:00:12.955Z,3.40
2023-04-07T07:00:43.813Z,3.40
2023-04-07T07:01:14.704Z,2.80
2023-04-07T07:01:45.654Z,2.50